Hauptseite
METAR-TAF:

METAR-TAF

Flughäfen :

Baden-Baden, Deutschland

Flughafen Karlsruhe/Baden-Baden

Breite: 48-46-43N, Länge: 008-04-47E, Höhe: 124 m

Beobachtung

Neuester Wetterbericht von vor 3 Stunden und 20 Minuten, um 21:20 UTC
Wind 3 kt aus Südwest
Temperatur 6°C
Luftfeuchtigkeit 87%
Luftdruck 1015 hPa
Sichtweite 10 km oder mehr
keine Wolken unter 1500 m und keine Kumulonimbus oder Gewitterwolken

METAR: EDSB 272120Z 22003KT CAVOK 06/04 Q1015

Zeit: 02:40 (00:40 UTC)

Prognose

Neuester Wetterbericht von vor 7 Stunden und 40 Minuten, um 17:00 UTC
Gültige Prognose vom 27 um 18 UTC bis 28 um 18 UTC
Wind 4 kt aus Nord/Nordost
Sichtweite 10 km oder mehr
Aufgelockert bewölkt in der Höhe von 3500 ft
Durchbrochene Bewölkung in der Höhe von 4500 ft
Übergehend zu
vom 28 um 07 UTC bis 28 um 10 UTC
Wind 5 kt aus West/Nordwest

TAF: EDSB 271700Z 2718/2818 02004KT 9999 SCT035 BKN045 BECMG 2807/2810 30005KT

Wetterbeobachtungen und Prognosen von mehr als 4000 Flughäfen (METAR und TAF Bericht).

Die verfügbaren Stationen werden durch gelbe und rote Markierungen auf der Karte dargestellt.

Führen Sie die Maus auf sie, um den Namen der Station zu sehen.

Darauf klicken, um die Beobachtung von Wetterbeobachtungen und Prognosen zu sehen.

Um die Karte zu ändern : klicken Sie auf den grünen Tasten mit einem schwarzen Kreuz Zum Vergrößern, auf den grünen Button mit einem Gedankenstrich zu verkleinern, oder auf die grünen Pfeile für benachbarte Karten.


METAR-TAF: